Time;durP1;ratioP1;P1;durP2;ratioP2;P2;SDS_P1;SDS_P2;PMS_P1;PMS_P2;Temp;Humidity;BMP_temperature;BMP_pressure;BME280_temperature;BME280_humidity;BME280_pressure;Samples;Min_cycle;Max_cycle;Signal;HPM_P1;HPM_P2
2023/12/05 00:00:10;;;;;;;14.52;6.87;;;;;;;-3.42;100.00;98779.44;4485351;31;20436;-73
2023/12/05 00:02:39;;;;;;;19.77;10.50;;;;;;;-3.39;100.00;98774.19;4485404;31;20100;-73
2023/12/05 00:05:07;;;;;;;10.98;5.80;;;;;;;-3.50;100.00;98781.37;4485441;31;20123;-73
2023/12/05 00:07:35;;;;;;;21.10;7.18;;;;;;;-3.35;100.00;98778.31;4485340;31;20126;-73
2023/12/05 00:10:04;;;;;;;21.55;10.13;;;;;;;-3.42;100.00;98782.00;4485322;31;20119;-73
2023/12/05 00:12:31;;;;;;;13.30;6.82;;;;;;;-3.37;100.00;98776.72;4485341;31;20091;-73
2023/12/05 00:14:59;;;;;;;17.77;9.05;;;;;;;-3.25;100.00;98776.31;4485562;31;20076;-73
2023/12/05 00:17:27;;;;;;;14.70;6.78;;;;;;;-3.30;100.00;98773.03;4485304;32;20581;-73
2023/12/05 00:19:55;;;;;;;21.52;9.85;;;;;;;-3.27;100.00;98780.63;4485354;31;20108;-73
2023/12/05 00:22:26;;;;;;;19.87;8.30;;;;;;;-3.23;100.00;98771.97;4485362;31;20167;-73
2023/12/05 00:24:55;;;;;;;18.10;6.65;;;;;;;-3.21;100.00;98763.34;4485456;31;20556;-73
2023/12/05 00:27:28;;;;;;;14.30;8.13;;;;;;;-3.15;100.00;98762.31;4485277;31;20085;-73
2023/12/05 00:29:56;;;;;;;15.68;8.52;;;;;;;-3.20;100.00;98759.06;4485104;31;20188;-73
2023/12/05 00:32:27;;;;;;;14.13;7.43;;;;;;;-3.27;100.00;98770.38;4485487;31;20092;-73
2023/12/05 00:34:54;;;;;;;21.12;8.98;;;;;;;-3.22;100.00;98769.34;4485230;31;20084;-73
2023/12/05 00:37:23;;;;;;;15.85;7.57;;;;;;;-3.22;100.00;98750.59;4485443;31;20165;-73
2023/12/05 00:39:51;;;;;;;14.85;6.62;;;;;;;-3.22;100.00;98760.84;4485207;31;20440;-73
2023/12/05 00:42:19;;;;;;;22.70;10.88;;;;;;;-3.16;100.00;98775.16;4485414;31;20113;-73
2023/12/05 00:44:46;;;;;;;16.77;7.03;;;;;;;-3.19;100.00;98768.41;4485062;31;20096;-73
2023/12/05 00:47:16;;;;;;;14.30;7.10;;;;;;;-3.21;100.00;98776.16;4484998;31;20116;-73
2023/12/05 00:49:43;;;;;;;14.68;7.62;;;;;;;-3.26;100.00;98760.09;4485063;31;20097;-73
2023/12/05 00:52:11;;;;;;;19.33;8.52;;;;;;;-3.37;100.00;98763.91;4483726;32;20132;-73
2023/12/05 00:54:39;;;;;;;17.67;8.10;;;;;;;-3.34;100.00;98764.63;4484863;31;20080;-73
2023/12/05 00:57:07;;;;;;;22.10;9.35;;;;;;;-3.32;100.00;98769.72;4485292;31;20093;-73
2023/12/05 00:59:35;;;;;;;13.77;7.05;;;;;;;-3.13;100.00;98775.91;4484986;31;20123;-73
2023/12/05 01:02:09;;;;;;;17.98;7.82;;;;;;;-3.03;100.00;98776.41;4484990;31;20084;-73
2023/12/05 01:04:37;;;;;;;12.00;6.87;;;;;;;-2.94;100.00;98778.66;4485037;31;20535;-73
2023/12/05 01:07:05;;;;;;;15.25;6.60;;;;;;;-3.04;100.00;98773.03;4484898;32;20102;-73
2023/12/05 01:09:33;;;;;;;18.60;6.75;;;;;;;-2.98;100.00;98766.87;4484807;32;20096;-73
2023/12/05 01:12:01;;;;;;;17.02;8.88;;;;;;;-3.01;100.00;98753.28;4484861;31;20097;-73
2023/12/05 01:14:29;;;;;;;15.30;7.07;;;;;;;-3.04;100.00;98762.78;4484316;31;20099;-73
2023/12/05 01:16:58;;;;;;;20.08;8.20;;;;;;;-2.92;100.00;98768.34;4484648;31;20111;-73
2023/12/05 01:19:26;;;;;;;16.30;8.02;;;;;;;-2.97;100.00;98762.56;4484715;31;20493;-73
2023/12/05 01:21:54;;;;;;;14.20;7.05;;;;;;;-2.90;100.00;98753.78;4484742;31;20480;-73
2023/12/05 01:24:23;;;;;;;28.80;9.13;;;;;;;-3.05;100.00;98729.50;4485056;31;20096;-73
2023/12/05 01:26:50;;;;;;;13.75;6.90;;;;;;;-3.20;100.00;98715.50;4484679;31;20104;-73
2023/12/05 01:29:18;;;;;;;15.23;7.37;;;;;;;-3.35;100.00;98709.16;4484864;31;20518;-73
2023/12/05 01:31:46;;;;;;;10.50;5.50;;;;;;;-3.32;100.00;98703.94;4485008;31;20097;-73
2023/12/05 01:34:15;;;;;;;19.87;6.80;;;;;;;-3.42;100.00;98685.50;4484744;31;20080;-73
2023/12/05 01:36:43;;;;;;;15.07;8.07;;;;;;;-3.31;100.00;98684.31;4484642;32;20084;-73
2023/12/05 01:39:13;;;;;;;18.27;7.35;;;;;;;-3.31;100.00;98682.56;4484563;32;20169;-73
2023/12/05 01:41:40;;;;;;;10.95;5.55;;;;;;;-3.30;100.00;98683.37;4484630;31;20114;-73
2023/12/05 01:44:08;;;;;;;14.75;7.28;;;;;;;-3.27;100.00;98683.28;4484622;31;20088;-73
2023/12/05 01:46:36;;;;;;;13.23;6.07;;;;;;;-3.30;100.00;98704.75;4484500;31;20088;-73
2023/12/05 01:49:04;;;;;;;15.05;7.05;;;;;;;-3.30;100.00;98703.88;4483401;32;20512;-73
2023/12/05 01:51:41;;;;;;;15.55;7.07;;;;;;;-3.39;100.00;98675.16;4484632;31;20096;-73
2023/12/05 01:54:09;;;;;;;7.47;3.42;;;;;;;-3.32;100.00;98675.75;4484517;31;20092;-73
2023/12/05 01:56:37;;;;;;;16.20;7.82;;;;;;;-3.28;100.00;98687.59;4483215;32;20084;-73
2023/12/05 01:59:05;;;;;;;15.00;5.82;;;;;;;-3.19;100.00;98686.44;4484802;31;20157;-73
2023/12/05 02:01:34;;;;;;;21.77;9.60;;;;;;;-3.09;100.00;98682.66;4483092;32;20880;-73
2023/12/05 02:04:02;;;;;;;6.65;3.58;;;;;;;-3.08;100.00;98689.44;4484399;31;20104;-73
2023/12/05 02:06:30;;;;;;;18.52;8.30;;;;;;;-3.07;100.00;98680.88;4484324;31;20097;-73
2023/12/05 02:08:57;;;;;;;8.77;5.40;;;;;;;-3.09;100.00;98674.13;4482811;32;20096;-72
2023/12/05 02:11:26;;;;;;;14.73;7.15;;;;;;;-3.22;100.00;98677.13;4484383;32;20179;-73
2023/12/05 02:13:53;;;;;;;15.65;7.93;;;;;;;-3.18;100.00;98677.00;4482893;32;20516;-73
2023/12/05 02:16:35;;;;;;;12.15;6.20;;;;;;;-3.18;100.00;98666.75;4483189;32;20100;-73
2023/12/05 02:19:20;;;;;;;14.57;6.90;;;;;;;-3.18;100.00;98651.41;4454497;32;20101;-73
2023/12/05 02:21:49;;;;;;;9.75;4.40;;;;;;;-3.21;100.00;98655.75;4468668;32;20085;-73
2023/12/05 02:24:27;;;;;;;17.77;6.30;;;;;;;-3.19;100.00;98650.56;4467075;32;20445;-72
2023/12/05 02:27:07;;;;;;;13.18;7.60;;;;;;;-3.18;100.00;98641.16;4468427;32;20120;-72
2023/12/05 02:29:46;;;;;;;4.43;2.70;;;;;;;-3.16;100.00;98639.34;4480195;32;20122;-73
2023/12/05 02:32:13;;;;;;;16.67;8.10;;;;;;;-3.07;100.00;98632.19;4486178;31;20093;-72
2023/12/05 02:34:41;;;;;;;14.40;4.95;;;;;;;-3.12;100.00;98623.84;4485869;31;20088;-73
2023/12/05 02:37:34;;;;;;;15.88;7.60;;;;;;;-3.09;100.00;98625.44;4484728;32;20151;-72
2023/12/05 02:40:16;;;;;;;14.52;7.40;;;;;;;-3.01;100.00;98632.84;4486058;31;20092;-73
2023/12/05 02:42:45;;;;;;;16.95;7.12;;;;;;;-3.03;100.00;98631.19;4484604;32;20096;-73
2023/12/05 02:45:18;;;;;;;12.13;6.20;;;;;;;-3.09;100.00;98639.09;4484660;32;20205;-73
2023/12/05 02:47:49;;;;;;;24.48;7.97;;;;;;;-3.10;100.00;98639.16;4485845;31;20541;-72
2023/12/05 02:50:20;;;;;;;15.68;7.78;;;;;;;-3.09;100.00;98630.56;4484584;32;20097;-73
2023/12/05 02:52:47;;;;;;;11.85;6.28;;;;;;;-3.10;100.00;98624.62;4484623;32;20100;-73
2023/12/05 02:55:14;;;;;;;10.23;5.70;;;;;;;-3.09;100.00;98612.63;4485842;31;20513;-73
2023/12/05 02:57:42;;;;;;;9.45;5.10;;;;;;;-3.09;100.00;98616.03;4485823;31;20119;-73
2023/12/05 03:00:10;;;;;;;19.30;9.35;;;;;;;-3.09;100.00;98622.88;4485706;32;20092;-73
2023/12/05 03:02:37;;;;;;;16.52;9.00;;;;;;;-3.08;100.00;98622.81;4485912;31;20449;-73
2023/12/05 03:05:05;;;;;;;24.98;9.88;;;;;;;-3.11;100.00;98616.97;4485930;31;20100;-73
2023/12/05 03:07:33;;;;;;;21.02;9.48;;;;;;;-3.10;100.00;98610.97;4485672;31;20092;-73
2023/12/05 03:10:04;;;;;;;15.35;9.07;;;;;;;-3.15;100.00;98602.59;4485688;31;20100;-72
2023/12/05 03:12:37;;;;;;;13.80;7.30;;;;;;;-3.12;100.00;98595.66;4485872;31;20084;-73
2023/12/05 03:15:08;;;;;;;21.87;7.03;;;;;;;-3.10;100.00;98601.56;4485751;31;20107;-73
2023/12/05 03:17:36;;;;;;;15.77;5.90;;;;;;;-3.17;100.00;98602.66;4484686;32;20101;-73
2023/12/05 03:20:05;;;;;;;9.32;4.65;;;;;;;-3.13;100.00;98605.97;4485801;31;20183;-73
2023/12/05 03:22:33;;;;;;;19.52;8.23;;;;;;;-3.12;100.00;98603.34;4485972;31;20122;-73
2023/12/05 03:25:01;;;;;;;19.92;8.30;;;;;;;-3.10;100.00;98606.69;4485786;31;20145;-73
2023/12/05 03:27:28;;;;;;;7.65;4.65;;;;;;;-3.17;100.00;98607.78;4485922;31;20115;-73
2023/12/05 03:29:57;;;;;;;14.40;7.05;;;;;;;-3.24;100.00;98596.94;4485595;31;20169;-73
2023/12/05 03:32:25;;;;;;;19.33;7.22;;;;;;;-3.12;100.00;98594.81;4485604;31;20100;-73
2023/12/05 03:34:53;;;;;;;17.42;8.35;;;;;;;-3.04;100.00;98591.06;4485481;31;20441;-73
2023/12/05 03:37:20;;;;;;;15.00;7.72;;;;;;;-3.06;100.00;98580.06;4485330;31;20115;-73
2023/12/05 03:39:48;;;;;;;18.00;9.20;;;;;;;-3.07;100.00;98585.25;4485201;31;20100;-73
2023/12/05 03:42:24;;;;;;;11.20;5.07;;;;;;;-3.10;100.00;98575.94;4485470;31;20084;-73
2023/12/05 03:44:52;;;;;;;12.32;5.72;;;;;;;-3.08;100.00;98584.37;4485654;31;20613;-73
2023/12/05 03:47:20;;;;;;;13.43;7.22;;;;;;;-3.11;100.00;98576.00;4485519;31;20093;-73
2023/12/05 03:49:48;;;;;;;16.95;8.57;;;;;;;-3.05;100.00;98581.72;4485307;31;20089;-73
2023/12/05 03:52:16;;;;;;;12.65;6.97;;;;;;;-3.05;100.00;98580.88;4485435;31;20088;-73
2023/12/05 03:54:44;;;;;;;18.45;8.93;;;;;;;-2.96;100.00;98575.41;4485268;31;20096;-73
2023/12/05 03:57:11;;;;;;;10.98;6.03;;;;;;;-3.00;100.00;98565.34;4485410;31;20131;-73
2023/12/05 03:59:41;;;;;;;14.60;7.32;;;;;;;-3.00;100.00;98563.59;4485382;31;20088;-73
2023/12/05 04:02:08;;;;;;;16.90;6.93;;;;;;;-3.04;100.00;98555.19;4485592;31;20096;-73
2023/12/05 04:04:36;;;;;;;22.60;8.30;;;;;;;-2.97;100.00;98567.78;4485442;31;20172;-73
2023/12/05 04:07:05;;;;;;;11.70;5.87;;;;;;;-2.95;100.00;98558.28;4485540;31;20131;-73
2023/12/05 04:09:33;;;;;;;17.08;8.73;;;;;;;-2.99;100.00;98560.16;4484947;31;20134;-73
2023/12/05 04:12:03;;;;;;;24.00;10.90;;;;;;;-3.05;100.00;98558.66;4485569;31;20122;-73
2023/12/05 04:14:30;;;;;;;17.67;6.57;;;;;;;-3.02;100.00;98552.56;4483822;32;20507;-73
2023/12/05 04:16:58;;;;;;;16.95;8.57;;;;;;;-3.02;100.00;98552.56;4484122;32;20441;-73
2023/12/05 04:19:26;;;;;;;16.37;8.55;;;;;;;-3.08;100.00;98557.94;4485150;32;20092;-73
2023/12/05 04:21:54;;;;;;;12.40;6.37;;;;;;;-3.04;100.00;98560.31;4485238;32;20161;-73
2023/12/05 04:24:21;;;;;;;15.18;6.37;;;;;;;-2.95;100.00;98561.72;4485103;32;20152;-73
2023/12/05 04:26:49;;;;;;;15.95;7.80;;;;;;;-2.93;100.00;98548.84;4485259;31;20092;-73
2023/12/05 04:29:17;;;;;;;21.90;9.63;;;;;;;-2.92;100.00;98558.19;4484994;31;20120;-73
2023/12/05 04:31:45;;;;;;;16.45;7.85;;;;;;;-2.99;100.00;98559.31;4485232;32;20529;-72
2023/12/05 04:34:13;;;;;;;18.25;9.68;;;;;;;-2.98;100.00;98556.72;4485111;31;20084;-73
2023/12/05 04:36:41;;;;;;;20.15;9.00;;;;;;;-2.92;100.00;98559.03;4485439;31;20092;-72
2023/12/05 04:39:09;;;;;;;15.57;7.70;;;;;;;-2.95;100.00;98565.97;4485010;31;20155;-72
2023/12/05 04:41:41;;;;;;;16.40;7.97;;;;;;;-2.93;100.00;98559.09;4485573;31;20084;-73
2023/12/05 04:44:08;;;;;;;13.13;7.07;;;;;;;-2.97;100.00;98558.34;4485040;31;20088;-72
2023/12/05 04:46:37;;;;;;;15.73;7.65;;;;;;;-2.94;100.00;98553.09;4485030;31;20092;-72
2023/12/05 04:49:08;;;;;;;18.87;9.50;;;;;;;-2.91;100.00;98552.16;4484569;31;20080;-73
2023/12/05 04:51:35;;;;;;;17.48;9.27;;;;;;;-2.88;100.00;98552.06;4484262;32;20093;-73
2023/12/05 04:54:03;;;;;;;15.18;7.62;;;;;;;-2.88;100.00;98552.06;4485084;32;20155;-73
2023/12/05 04:56:31;;;;;;;19.70;8.63;;;;;;;-3.00;100.00;98562.78;4484899;31;20123;-72
2023/12/05 04:58:59;;;;;;;22.77;11.18;;;;;;;-2.90;100.00;98562.38;4484904;31;20088;-73
2023/12/05 05:01:27;;;;;;;19.12;9.68;;;;;;;-2.96;100.00;98559.22;4484843;31;20795;-73
2023/12/05 05:03:54;;;;;;;15.15;8.93;;;;;;;-2.92;100.00;98556.47;4483356;32;20187;-73
2023/12/05 05:06:28;;;;;;;;;;;;;;;-2.95;100.00;98555.72;4485353;31;20115;-73
2023/12/05 05:08:58;;;;;;;16.37;8.13;;;;;;;-2.91;100.00;98563.25;4484537;31;20316;-72
2023/12/05 05:11:25;;;;;;;24.33;10.20;;;;;;;-2.80;100.00;98559.44;4484655;31;20512;-72
2023/12/05 05:13:53;;;;;;;12.65;7.35;;;;;;;-2.78;100.00;98568.75;4484822;31;20127;-72
2023/12/05 05:16:25;;;;;;;20.20;9.10;;;;;;;-2.79;100.00;98556.81;4484412;31;20145;-72
2023/12/05 05:18:55;;;;;;;22.02;9.52;;;;;;;-2.78;100.00;98562.81;4469190;32;20113;-73
2023/12/05 05:21:24;;;;;;;26.20;12.90;;;;;;;-2.77;100.00;98559.31;4469261;32;20130;-72
2023/12/05 05:23:52;;;;;;;27.75;10.00;;;;;;;-2.86;100.00;98560.53;4469083;32;20629;-72
2023/12/05 05:26:20;;;;;;;18.25;8.55;;;;;;;-2.80;100.00;98555.19;4469035;32;20101;-72
2023/12/05 05:28:47;;;;;;;15.85;7.62;;;;;;;-2.75;100.00;98553.25;4473587;32;20446;-72
2023/12/05 05:31:15;;;;;;;25.35;10.90;;;;;;;-2.78;100.00;98563.62;4484732;31;20151;-72
2023/12/05 05:33:43;;;;;;;18.73;10.40;;;;;;;-2.70;100.00;98559.03;4484654;31;20219;-72
2023/12/05 05:36:13;;;;;;;15.95;8.27;;;;;;;-2.72;100.00;98557.44;4484503;31;20428;-72
2023/12/05 05:38:41;;;;;;;20.60;7.72;;;;;;;-2.74;100.00;98560.06;4485059;31;20096;-72
2023/12/05 05:41:11;;;;;;;17.90;7.85;;;;;;;-2.65;100.00;98563.16;4484685;31;20479;-73
2023/12/05 05:43:40;;;;;;;13.25;6.32;;;;;;;-2.70;100.00;98558.22;4484757;31;20088;-73
2023/12/05 05:46:07;;;;;;;18.58;7.20;;;;;;;-2.71;100.00;98562.50;4484432;31;20080;-73
2023/12/05 05:48:35;;;;;;;19.77;8.85;;;;;;;-2.69;100.00;98567.59;4484667;31;20096;-72
2023/12/05 05:51:06;;;;;;;21.23;10.73;;;;;;;-2.64;100.00;98567.41;4484433;31;20159;-73
2023/12/05 05:53:34;;;;;;;7.55;4.60;;;;;;;-2.70;100.00;98566.72;4484441;31;20461;-72
2023/12/05 05:56:02;;;;;;;21.30;9.43;;;;;;;-2.70;100.00;98561.59;4484383;31;20130;-73
2023/12/05 05:58:30;;;;;;;24.73;10.75;;;;;;;-2.86;100.00;98568.22;4484499;31;20085;-73
2023/12/05 06:01:00;;;;;;;20.98;10.13;;;;;;;-2.77;100.00;98565.31;4484592;31;20091;-73
2023/12/05 06:03:30;;;;;;;18.55;8.57;;;;;;;-2.71;100.00;98559.94;4488590;31;20092;-73
2023/12/05 06:05:59;;;;;;;24.65;9.63;;;;;;;-2.61;100.00;98569.84;4498563;31;20485;-73
2023/12/05 06:08:27;;;;;;;24.20;11.77;;;;;;;-2.68;100.00;98564.97;4499523;31;20172;-73
2023/12/05 06:10:55;;;;;;;15.18;7.72;;;;;;;-2.67;100.00;98564.03;4480915;31;78780;-73
2023/12/05 06:13:23;;;;;;;20.23;9.68;;;;;;;-2.74;100.00;98556.66;4485276;31;20540;-73
2023/12/05 06:15:51;;;;;;;23.70;9.88;;;;;;;-2.79;100.00;98551.69;4481283;31;20141;-73
2023/12/05 06:18:18;;;;;;;26.60;11.07;;;;;;;-2.64;100.00;98564.84;4481965;31;20753;-73
2023/12/05 06:20:46;;;;;;;24.45;10.18;;;;;;;-2.60;100.00;98566.41;4483532;31;20260;-73
2023/12/05 06:23:14;;;;;;;14.52;8.18;;;;;;;-2.65;100.00;98568.28;4483303;31;20112;-73
2023/12/05 06:25:43;;;;;;;17.12;9.05;;;;;;;-2.71;100.00;98570.19;4481903;31;20109;-73
2023/12/05 06:28:11;;;;;;;21.10;11.73;;;;;;;-2.71;100.00;98559.94;4482436;31;20097;-73
2023/12/05 06:30:39;;;;;;;8.15;5.57;;;;;;;-2.68;100.00;98572.66;4482934;31;20155;-73
2023/12/05 06:33:07;;;;;;;24.45;10.38;;;;;;;-2.60;100.00;98567.22;4481291;31;20108;-73
2023/12/05 06:35:35;;;;;;;29.35;12.00;;;;;;;-2.65;100.00;98558.84;4481474;32;20100;-73
2023/12/05 06:38:03;;;;;;;14.20;7.45;;;;;;;-2.61;100.00;98557.03;4471073;32;20497;-73
2023/12/05 06:40:32;;;;;;;28.60;11.18;;;;;;;-2.58;100.00;98567.16;4477584;31;20100;-72
2023/12/05 06:42:59;;;;;;;28.90;12.00;;;;;;;-2.60;100.00;98562.09;4479026;32;20203;-73
2023/12/05 06:45:27;;;;;;;29.92;10.45;;;;;;;-2.57;100.00;98561.16;4481685;31;20161;-73
2023/12/05 06:47:58;;;;;;;15.07;9.10;;;;;;;-2.57;100.00;98553.44;4473244;32;20116;-73
2023/12/05 06:50:27;;;;;;;17.90;10.13;;;;;;;-2.63;100.00;98558.81;4473642;31;20096;-73
2023/12/05 06:52:59;;;;;;;17.20;7.30;;;;;;;-2.64;100.00;98555.41;4483097;31;20214;-73
2023/12/05 06:55:28;;;;;;;28.83;12.33;;;;;;;-2.62;100.00;98575.84;4483698;31;20122;-73
2023/12/05 06:57:55;;;;;;;20.08;10.23;;;;;;;-2.53;100.00;98573.78;4479928;31;20492;-74
2023/12/05 07:00:27;;;;;;;23.02;9.38;;;;;;;-2.60;100.00;98567.22;4474445;31;20453;-74
2023/12/05 07:02:55;;;;;;;36.50;12.82;;;;;;;-2.54;100.00;98572.09;4483492;32;20108;-74
2023/12/05 07:05:23;;;;;;;19.65;10.38;;;;;;;-2.48;100.00;98575.31;4483073;31;20088;-73
2023/12/05 07:07:50;;;;;;;23.70;11.40;;;;;;;-2.46;100.00;98584.63;4485019;31;20118;-73
2023/12/05 07:10:18;;;;;;;18.60;8.98;;;;;;;-2.41;100.00;98577.56;4482795;31;20467;-74
2023/12/05 07:12:47;;;;;;;22.45;9.93;;;;;;;-2.47;100.00;98575.25;4482443;31;20164;-74
2023/12/05 07:15:15;;;;;;;28.95;10.15;;;;;;;-2.50;100.00;98578.78;4479264;31;20091;-73
2023/12/05 07:17:44;;;;;;;24.73;10.15;;;;;;;-2.41;100.00;98577.56;4479307;31;20132;-73
2023/12/05 07:20:11;;;;;;;20.75;9.60;;;;;;;-2.36;100.00;98590.25;4472472;32;20092;-74
2023/12/05 07:22:39;;;;;;;18.58;9.10;;;;;;;-2.28;100.00;98587.38;4482440;32;20100;-73
2023/12/05 07:25:07;;;;;;;22.13;10.13;;;;;;;-2.25;100.00;98592.38;4477554;31;20118;-73
2023/12/05 07:27:36;;;;;;;25.37;12.15;;;;;;;-2.26;100.00;98588.12;4470625;32;20123;-74
2023/12/05 07:30:04;;;;;;;32.42;14.05;;;;;;;-2.15;100.00;98594.50;4476230;31;20140;-72
2023/12/05 07:32:34;;;;;;;24.25;9.32;;;;;;;-2.29;100.00;98596.78;4478706;31;20168;-72
2023/12/05 07:35:02;;;;;;;25.10;10.68;;;;;;;-2.13;100.00;98594.44;4469121;31;20122;-73
2023/12/05 07:37:30;;;;;;;29.52;11.57;;;;;;;-2.03;100.00;98595.75;4475018;31;20097;-74
2023/12/05 07:39:58;;;;;;;13.40;7.32;;;;;;;-1.90;100.00;98610.66;4481376;31;20168;-75
2023/12/05 07:42:26;;;;;;;14.57;7.37;;;;;;;-1.99;100.00;98597.28;4484032;31;20155;-78
2023/12/05 07:44:55;;;;;;;23.40;11.35;;;;;;;-1.96;100.00;98606.59;4488033;31;20088;-73
2023/12/05 07:47:24;;;;;;;34.05;10.80;;;;;;;-1.86;100.00;98600.19;4482674;31;20122;-76
2023/12/05 07:49:51;;;;;;;20.12;10.75;;;;;;;-1.88;100.00;98599.41;4476274;31;20169;-74
2023/12/05 07:52:19;;;;;;;17.60;9.02;;;;;;;-1.89;100.00;98596.91;4486841;31;20128;-74
2023/12/05 07:54:48;;;;;;;18.85;9.38;;;;;;;-1.78;100.00;98592.16;4487071;31;20159;-75
2023/12/05 07:57:21;;;;;;;20.62;10.07;;;;;;;-1.88;100.00;98591.69;4487488;31;20092;-73
2023/12/05 07:59:50;;;;;;;23.58;12.07;;;;;;;-1.92;100.00;98591.87;4488502;31;20096;-73
2023/12/05 08:02:18;;;;;;;19.42;10.32;;;;;;;-1.88;100.00;98590.87;4487472;31;20469;-73
2023/12/05 08:04:46;;;;;;;19.30;10.95;;;;;;;-1.91;100.00;98593.56;4477128;31;20160;-73
2023/12/05 08:07:15;;;;;;;20.80;9.73;;;;;;;-1.80;100.00;98589.66;4484881;31;20152;-73
2023/12/05 08:09:50;;;;;;;22.37;9.77;;;;;;;-1.88;100.00;98590.87;4487928;31;20115;-72
2023/12/05 08:12:18;;;;;;;24.45;9.98;;;;;;;-1.84;100.00;98577.84;4483130;31;20556;-75
2023/12/05 08:14:46;;;;;;;23.58;10.00;;;;;;;-1.66;100.00;98578.81;4482778;31;20096;-75
2023/12/05 08:17:13;;;;;;;12.43;5.68;;;;;;;-1.56;100.00;98579.25;4484824;31;20212;-74
2023/12/05 08:19:43;;;;;;;18.90;9.90;;;;;;;-1.59;100.00;98575.97;4484168;31;21106;-74
2023/12/05 08:22:14;;;;;;;24.95;11.15;;;;;;;-1.58;100.00;98578.47;4473180;31;20089;-74
2023/12/05 08:24:42;;;;;;;19.25;7.53;;;;;;;-1.50;100.00;98581.56;4481188;31;20227;-74
2023/12/05 08:28:03;;;;;;;17.15;8.40;;;;;;;-1.10;100.00;98591.84;4509196;31;72111;-74
2023/12/05 08:30:31;;;;;;;28.12;11.02;;;;;;;-1.10;100.00;98591.84;4502541;31;20210;-74
2023/12/05 08:33:00;;;;;;;39.75;15.50;;;;;;;-1.51;100.00;98590.16;4498450;31;20521;-75
2023/12/05 08:35:30;;;;;;;26.25;13.18;;;;;;;-1.58;100.00;98587.94;4494905;31;20100;-74
2023/12/05 08:37:59;;;;;;;30.75;14.30;;;;;;;-1.54;100.00;98597.19;4495965;31;20127;-75
2023/12/05 08:40:27;;;;;;;32.92;13.50;;;;;;;-1.58;100.00;98593.88;4493608;31;20112;-74
2023/12/05 08:42:55;;;;;;;28.00;13.02;;;;;;;-1.54;100.00;98587.72;4499325;31;20100;-73
2023/12/05 08:45:24;;;;;;;32.22;13.68;;;;;;;-1.67;100.00;98587.41;4498821;31;20122;-73
2023/12/05 08:47:54;;;;;;;26.10;12.05;;;;;;;-1.62;100.00;98587.19;4502703;31;20095;-74
2023/12/05 08:50:22;;;;;;;23.65;12.88;;;;;;;-1.70;100.00;98587.53;4495620;31;20464;-74
2023/12/05 08:52:50;;;;;;;28.73;12.25;;;;;;;-1.58;100.00;98585.34;4497285;31;20104;-75
2023/12/05 08:55:18;;;;;;;26.85;12.57;;;;;;;-1.63;100.00;98581.25;4497251;31;20728;-75
2023/12/05 08:57:46;;;;;;;26.05;12.32;;;;;;;-1.55;100.00;98582.66;4492337;31;20389;-76
2023/12/05 09:00:14;;;;;;;26.80;12.63;;;;;;;-1.45;100.00;98586.50;4495469;31;20190;-75
2023/12/05 09:02:48;;;;;;;22.42;11.18;;;;;;;-1.31;100.00;98591.03;4500480;31;20195;-74
2023/12/05 09:05:17;;;;;;;27.13;12.73;;;;;;;-1.33;100.00;98596.25;4500789;31;20122;-74
2023/12/05 09:07:45;;;;;;;27.77;12.75;;;;;;;-1.46;100.00;98593.34;4509704;31;20768;-76
2023/12/05 09:10:16;;;;;;;30.73;12.52;;;;;;;-1.39;100.00;98596.50;4512315;31;20084;-75
2023/12/05 09:12:45;;;;;;;32.13;13.27;;;;;;;-1.47;100.00;98596.00;4507015;31;20138;-75
2023/12/05 09:15:13;;;;;;;26.08;11.70;;;;;;;-1.28;100.00;98602.00;4502903;31;20390;-76
2023/12/05 09:17:41;;;;;;;24.83;12.70;;;;;;;-1.20;100.00;98598.28;4500589;31;20107;-75
2023/12/05 09:20:10;;;;;;;25.88;11.50;;;;;;;-1.25;100.00;98590.78;4498996;31;20100;-74
2023/12/05 09:22:41;;;;;;;22.35;10.88;;;;;;;-1.29;100.00;98589.22;4495768;31;20507;-75
2023/12/05 09:25:09;;;;;;;23.92;10.48;;;;;;;-1.23;100.00;98593.28;4498506;31;20157;-75
2023/12/05 09:27:38;;;;;;;23.67;11.77;;;;;;;-1.39;100.00;98586.25;4492025;31;20157;-74
2023/12/05 09:30:07;;;;;;;36.65;12.35;;;;;;;-1.29;100.00;98584.94;4488379;31;20088;-74
2023/12/05 09:32:35;;;;;;;15.43;8.13;;;;;;;-1.28;100.00;98590.91;4499803;31;20091;-74
2023/12/05 09:35:04;;;;;;;28.83;12.60;;;;;;;-1.28;100.00;98576.31;4503822;31;20177;-75
2023/12/05 09:37:32;;;;;;;23.73;10.55;;;;;;;-1.20;100.00;98575.16;4495069;31;20095;-75
2023/12/05 09:40:07;;;;;;;37.90;15.73;;;;;;;-1.20;100.00;98570.81;4486997;31;20132;-75
2023/12/05 09:42:47;;;;;;;33.47;13.93;;;;;;;-1.16;100.00;98574.13;4487179;31;20572;-75
2023/12/05 09:45:16;;;;;;;25.75;10.52;;;;;;;-0.97;100.00;98564.66;4492769;31;20085;-76
2023/12/05 09:47:47;;;;;;;35.72;13.90;;;;;;;-1.12;100.00;98565.34;4486614;31;20140;-76
2023/12/05 09:50:16;;;;;;;30.83;12.90;;;;;;;-1.08;100.00;98566.88;4480280;31;20442;-73
2023/12/05 09:52:44;;;;;;;23.52;12.65;;;;;;;-0.92;100.00;98556.75;4481858;31;20810;-74
2023/12/05 09:55:11;;;;;;;34.85;13.98;;;;;;;-0.99;100.00;98557.91;4489979;31;20119;-76
2023/12/05 09:57:39;;;;;;;31.23;12.52;;;;;;;-0.71;100.00;98549.78;4476623;31;20088;-74
2023/12/05 10:00:07;;;;;;;23.17;12.20;;;;;;;-0.63;100.00;98552.81;4488357;31;20100;-74
2023/12/05 10:02:40;;;;;;;27.33;12.60;;;;;;;-0.83;100.00;98547.75;4486222;31;20088;-75
2023/12/05 10:05:14;;;;;;;33.45;12.37;;;;;;;-0.81;100.00;98538.25;4481983;31;20108;-76
2023/12/05 10:07:43;;;;;;;21.52;9.68;;;;;;;-0.78;100.00;98533.78;4482340;31;20096;-74
2023/12/05 10:10:12;;;;;;;30.73;12.57;;;;;;;-0.61;100.00;98525.25;4485248;31;20100;-74
2023/12/05 10:12:41;;;;;;;30.37;11.45;;;;;;;-0.75;100.00;98530.25;4482964;31;20099;-75
2023/12/05 10:15:10;;;;;;;29.95;13.32;;;;;;;-0.76;100.00;98524.28;4482401;31;20088;-75
2023/12/05 10:17:38;;;;;;;34.85;14.95;;;;;;;-0.58;100.00;98517.41;4482095;31;20100;-75
2023/12/05 10:20:08;;;;;;;30.35;12.80;;;;;;;-0.61;100.00;98512.41;4489467;31;20099;-73
2023/12/05 10:22:36;;;;;;;28.98;12.93;;;;;;;-0.55;100.00;98509.53;4488932;31;20123;-74
2023/12/05 10:25:07;;;;;;;19.40;11.00;;;;;;;-0.46;100.00;98507.44;4490827;31;20077;-74
2023/12/05 10:27:35;;;;;;;23.65;12.05;;;;;;;-0.44;100.00;98505.59;4483090;31;20146;-75
2023/12/05 10:30:05;;;;;;;28.10;11.80;;;;;;;-0.48;100.00;98496.41;4488594;31;20093;-75
2023/12/05 10:32:32;;;;;;;26.25;11.12;;;;;;;-0.49;100.00;98502.44;4486123;31;20097;-75
2023/12/05 10:35:02;;;;;;;29.70;12.65;;;;;;;-0.28;100.00;98493.66;4482047;31;20779;-75
2023/12/05 10:37:30;;;;;;;35.78;14.70;;;;;;;-0.24;100.00;98492.59;4479786;31;21071;-75
2023/12/05 10:39:59;;;;;;;35.00;13.00;;;;;;;-0.03;100.00;98500.16;4481371;31;20115;-73
2023/12/05 10:42:30;;;;;;;25.23;11.60;;;;;;;-0.19;100.00;98500.09;4477905;31;20137;-72
2023/12/05 10:45:04;;;;;;;29.17;13.55;;;;;;;-0.13;100.00;98497.22;4485458;31;20080;-72
2023/12/05 10:47:42;;;;;;;27.25;12.45;;;;;;;-0.11;100.00;98494.56;4494084;31;20123;-72
2023/12/05 10:50:10;;;;;;;31.08;12.25;;;;;;;-0.13;100.00;98483.53;4466338;31;20088;-73
2023/12/05 10:52:39;;;;;;;29.58;14.43;;;;;;;-0.04;100.00;98470.19;4472899;32;20084;-72
2023/12/05 10:55:07;;;;;;;36.55;13.95;;;;;;;-0.09;100.00;98479.88;4471434;32;20610;-73
2023/12/05 10:57:35;;;;;;;26.90;10.48;;;;;;;-0.09;100.00;98479.88;4473005;32;20109;-73
2023/12/05 11:00:05;;;;;;;30.40;12.43;;;;;;;-0.07;100.00;98478.88;4468319;32;20096;-73
2023/12/05 11:02:36;;;;;;;25.70;12.05;;;;;;;-0.38;100.00;98483.00;4470963;32;20492;-72
2023/12/05 11:05:04;;;;;;;30.40;12.30;;;;;;;-0.34;100.00;98475.13;4473682;32;20105;-74
2023/12/05 11:07:31;;;;;;;25.48;12.02;;;;;;;-0.37;100.00;98478.69;4467690;32;20175;-74
2023/12/05 11:09:59;;;;;;;27.35;12.23;;;;;;;-0.34;100.00;98491.37;4476134;31;20153;-74
2023/12/05 11:12:27;;;;;;;26.20;10.32;;;;;;;-0.43;100.00;98491.84;4470432;32;20100;-74
2023/12/05 11:14:57;;;;;;;22.45;12.02;;;;;;;-0.51;100.00;98491.41;4465693;32;20104;-73
2023/12/05 11:17:28;;;;;;;31.87;14.80;;;;;;;-0.55;100.00;98488.12;4461897;32;20132;-73
2023/12/05 11:20:11;;;;;;;30.52;12.88;;;;;;;-0.54;100.00;98489.81;4467755;32;20465;-72
2023/12/05 11:22:55;;;;;;;31.30;14.55;;;;;;;-0.50;100.00;98490.47;4467295;32;20556;-74